Time;durP1;ratioP1;P1;durP2;ratioP2;P2;SDS_P1;SDS_P2;PMS_P1;PMS_P2;Temp;Humidity;BMP_temperature;BMP_pressure;BME280_temperature;BME280_humidity;BME280_pressure;Samples;Min_cycle;Max_cycle;Signal;HPM_P1;HPM_P2
2023/07/13 00:00:25;;;;;;;10.25;3.75;;;17.20;99.90;;;;;;5132120;27;20399;-41
2023/07/13 00:02:53;;;;;;;7.10;2.63;;;17.30;99.90;;;;;;5137365;27;20039;-41
2023/07/13 00:05:20;;;;;;;9.77;3.55;;;17.30;99.90;;;;;;5103538;27;20055;-40
2023/07/13 00:07:46;;;;;;;8.63;2.47;;;17.20;99.90;;;;;;5116554;27;20039;-40
2023/07/13 00:10:12;;;;;;;6.10;2.17;;;17.30;99.90;;;;;;5116398;27;20046;-41
2023/07/13 00:12:39;;;;;;;6.68;2.28;;;17.20;99.90;;;;;;5115909;27;20151;-40
2023/07/13 00:15:11;;;;;;;5.35;2.22;;;17.20;99.90;;;;;;5097499;27;20237;-40
2023/07/13 00:17:38;;;;;;;7.30;2.75;;;17.10;99.90;;;;;;5116114;27;20057;-40
2023/07/13 00:20:05;;;;;;;6.88;2.47;;;17.00;99.90;;;;;;5116447;27;20127;-40
2023/07/13 00:22:31;;;;;;;6.88;2.28;;;17.00;99.90;;;;;;5116236;27;20408;-42
2023/07/13 00:24:56;;;;;;;6.40;2.30;;;16.90;99.90;;;;;;5116599;27;20490;-40
2023/07/13 00:27:23;;;;;;;6.53;3.00;;;16.90;99.90;;;;;;5115802;27;20075;-40
2023/07/13 00:29:49;;;;;;;6.55;2.25;;;16.80;99.90;;;;;;5115895;27;20053;-39
2023/07/13 00:32:15;;;;;;;9.40;2.88;;;16.70;99.90;;;;;;5115206;27;20043;-40
2023/07/13 00:34:40;;;;;;;10.23;2.70;;;16.70;99.90;;;;;;5091599;27;20401;-40
2023/07/13 00:37:07;;;;;;;7.65;2.97;;;16.60;99.90;;;;;;5112981;27;20046;-42
2023/07/13 00:39:36;;;;;;;8.25;2.30;;;16.60;99.90;;;;;;5113201;27;20275;-40
2023/07/13 00:42:02;;;;;;;4.70;2.10;;;16.50;99.90;;;;;;5115989;27;20050;-40
2023/07/13 00:44:29;;;;;;;4.85;2.00;;;16.50;99.90;;;;;;5084255;27;20058;-40
2023/07/13 00:46:55;;;;;;;7.03;1.90;;;16.50;99.90;;;;;;5115844;27;20401;-41
2023/07/13 00:49:23;;;;;;;4.07;1.63;;;16.50;99.90;;;;;;5116587;27;20130;-41
2023/07/13 00:51:53;;;;;;;4.38;1.75;;;16.50;99.90;;;;;;5115602;27;20804;-40
2023/07/13 00:54:32;;;;;;;4.57;1.73;;;16.60;99.90;;;;;;5115285;27;20046;-40
2023/07/13 00:57:01;;;;;;;3.63;1.15;;;16.50;99.90;;;;;;5067057;28;20458;-40
2023/07/13 00:59:26;;;;;;;3.58;1.30;;;16.60;99.90;;;;;;5117138;27;20042;-41
2023/07/13 01:01:53;;;;;;;8.07;1.98;;;16.60;99.90;;;;;;5135459;27;20042;-40
2023/07/13 01:04:19;;;;;;;4.72;1.60;;;16.70;99.90;;;;;;5129532;27;20058;-40
2023/07/13 01:06:46;;;;;;;5.50;1.55;;;16.70;99.90;;;;;;5129251;27;20058;-40
2023/07/13 01:09:13;;;;;;;6.55;1.52;;;16.70;99.90;;;;;;5136300;27;20050;-40
2023/07/13 01:11:40;;;;;;;6.25;1.67;;;16.70;99.90;;;;;;5121601;27;20046;-39
2023/07/13 01:14:06;;;;;;;4.30;1.67;;;16.70;99.90;;;;;;5115254;27;20035;-40
2023/07/13 01:16:33;;;;;;;5.13;1.65;;;16.70;99.90;;;;;;5114793;27;20039;-40
2023/07/13 01:19:01;;;;;;;5.57;1.65;;;16.70;99.90;;;;;;5115464;27;20404;-41
2023/07/13 01:21:28;;;;;;;7.18;1.60;;;16.70;99.90;;;;;;5115543;27;20057;-40
2023/07/13 01:23:54;;;;;;;7.28;2.30;;;16.60;99.90;;;;;;5116235;27;20043;-40
2023/07/13 01:26:20;;;;;;;4.35;2.00;;;16.60;99.90;;;;;;5115673;27;20047;-40
2023/07/13 01:28:46;;;;;;;3.90;1.83;;;16.60;99.90;;;;;;5115650;27;20485;-40
2023/07/13 01:31:12;;;;;;;8.80;2.83;;;16.50;99.90;;;;;;5115286;27;20039;-41
2023/07/13 01:33:40;;;;;;;5.88;1.90;;;16.40;99.90;;;;;;5115421;27;20035;-40
2023/07/13 01:36:10;;;;;;;8.00;2.30;;;16.50;99.90;;;;;;5099799;27;20048;-40
2023/07/13 01:38:36;;;;;;;7.35;1.98;;;16.40;99.90;;;;;;5111798;27;20043;-39
2023/07/13 01:41:02;;;;;;;4.13;1.83;;;16.30;99.90;;;;;;5115089;27;20043;-40
2023/07/13 01:43:28;;;;;;;5.85;2.30;;;16.30;99.90;;;;;;5089729;28;20436;-41
2023/07/13 01:45:54;;;;;;;9.48;2.72;;;16.30;99.90;;;;;;5091960;27;20043;-40
2023/07/13 01:48:20;;;;;;;8.82;2.20;;;16.20;99.90;;;;;;5096588;28;20051;-40
2023/07/13 01:50:47;;;;;;;8.93;2.45;;;16.20;99.90;;;;;;5078980;27;20119;-40
2023/07/13 01:53:13;;;;;;;7.97;2.40;;;16.20;99.90;;;;;;5096186;28;20550;-40
2023/07/13 01:55:38;;;;;;;7.07;2.38;;;16.20;99.90;;;;;;5115534;27;20051;-40
2023/07/13 01:58:05;;;;;;;9.77;2.67;;;16.20;99.90;;;;;;5115094;27;20047;-40
2023/07/13 02:00:31;;;;;;;10.18;2.95;;;16.10;99.90;;;;;;5111379;27;20055;-39
2023/07/13 02:02:57;;;;;;;12.40;3.45;;;16.10;99.90;;;;;;5121668;27;20039;-40
2023/07/13 02:05:23;;;;;;;9.38;2.53;;;16.10;99.90;;;;;;5118989;27;20069;-40
2023/07/13 02:07:49;;;;;;;11.07;3.05;;;16.10;99.90;;;;;;5126305;27;20058;-40
2023/07/13 02:10:15;;;;;;;15.45;3.85;;;16.10;99.90;;;;;;5131334;27;20042;-40
2023/07/13 02:12:41;;;;;;;11.85;3.40;;;16.10;99.90;;;;;;5135743;27;20449;-40
2023/07/13 02:15:07;;;;;;;13.60;3.40;;;16.10;99.90;;;;;;5135385;27;20049;-40
2023/07/13 02:17:34;;;;;;;12.55;3.10;;;16.10;99.90;;;;;;5135419;27;20042;-40
2023/07/13 02:20:00;;;;;;;14.52;4.05;;;16.10;99.90;;;;;;5116136;27;20043;-40
2023/07/13 02:22:26;;;;;;;14.93;4.68;;;16.10;99.90;;;;;;5134739;27;20046;-40
2023/07/13 02:24:52;;;;;;;13.48;5.07;;;16.10;99.90;;;;;;5135629;27;20066;-40
2023/07/13 02:27:18;;;;;;;13.18;4.07;;;16.10;99.90;;;;;;5135130;27;20047;-40
2023/07/13 02:29:44;;;;;;;16.20;4.95;;;16.10;99.90;;;;;;5135771;27;20317;-40
2023/07/13 02:32:09;;;;;;;15.73;5.00;;;16.10;99.90;;;;;;5125345;27;20474;-39
2023/07/13 02:34:35;;;;;;;12.18;4.10;;;16.10;99.90;;;;;;5084940;27;20085;-40
2023/07/13 02:37:01;;;;;;;11.60;4.65;;;16.10;99.90;;;;;;5110723;27;20093;-39
2023/07/13 02:39:26;;;;;;;19.25;5.10;;;16.10;99.90;;;;;;5127100;27;20054;-40
2023/07/13 02:41:52;;;;;;;17.60;5.30;;;16.10;99.90;;;;;;5135644;27;20091;-40
2023/07/13 02:44:18;;;;;;;16.48;4.60;;;16.10;99.90;;;;;;5108392;27;20040;-40
2023/07/13 02:46:44;;;;;;;19.20;4.80;;;16.10;99.90;;;;;;5134339;27;20047;-40
2023/07/13 02:49:10;;;;;;;20.25;5.18;;;16.10;99.90;;;;;;5134881;27;20450;-40
2023/07/13 02:51:35;;;;;;;17.88;4.78;;;16.10;99.90;;;;;;5135334;27;20370;-40
2023/07/13 02:54:02;;;;;;;16.30;5.53;;;16.20;99.90;;;;;;5137429;27;20039;-40
2023/07/13 02:56:30;;;;;;;18.00;4.65;;;16.20;99.90;;;;;;5138612;27;20552;-40
2023/07/13 02:58:56;;;;;;;13.63;4.60;;;16.30;99.90;;;;;;5138739;27;20115;-40
2023/07/13 03:01:22;;;;;;;14.48;4.47;;;16.30;99.90;;;;;;5138793;27;20046;-42
2023/07/13 03:03:49;;;;;;;16.88;4.55;;;16.40;99.90;;;;;;5138865;27;20041;-40
2023/07/13 03:06:16;;;;;;;19.20;5.28;;;16.40;99.90;;;;;;5119722;27;20047;-40
2023/07/13 03:08:43;;;;;;;13.40;4.43;;;16.40;99.90;;;;;;5138889;27;20046;-39
2023/07/13 03:11:11;;;;;;;15.05;4.75;;;16.50;99.90;;;;;;5119246;27;20058;-39
2023/07/13 03:13:38;;;;;;;22.67;4.88;;;16.50;99.90;;;;;;5138061;27;20050;-40
2023/07/13 03:16:04;;;;;;;18.30;4.22;;;16.50;99.90;;;;;;5128120;27;20038;-40
2023/07/13 03:18:30;;;;;;;19.17;4.80;;;16.50;99.90;;;;;;5098372;27;20504;-41
2023/07/13 03:20:56;;;;;;;20.75;4.45;;;16.50;99.90;;;;;;5117491;27;20593;-40
2023/07/13 03:23:22;;;;;;;12.65;3.85;;;16.40;99.90;;;;;;5117772;27;20116;-40
2023/07/13 03:25:48;;;;;;;15.73;4.60;;;16.40;99.90;;;;;;5117807;27;20109;-40
2023/07/13 03:28:15;;;;;;;13.43;3.80;;;16.40;99.90;;;;;;5116725;27;20158;-40
2023/07/13 03:30:41;;;;;;;14.02;4.38;;;16.30;99.90;;;;;;5117738;27;20468;-40
2023/07/13 03:33:07;;;;;;;17.55;4.82;;;16.30;99.90;;;;;;5116346;27;20093;-40
2023/07/13 03:35:34;;;;;;;14.98;4.28;;;16.20;99.90;;;;;;5073382;27;20130;-40
2023/07/13 03:38:00;;;;;;;13.63;3.58;;;16.20;99.90;;;;;;5113099;27;20126;-40
2023/07/13 03:40:27;;;;;;;14.45;3.92;;;16.20;99.90;;;;;;5117786;27;20487;-40
2023/07/13 03:42:52;;;;;;;13.38;3.35;;;16.20;99.90;;;;;;5095303;27;20139;-40
2023/07/13 03:45:18;;;;;;;16.20;4.10;;;16.10;99.90;;;;;;5106776;27;20068;-40
2023/07/13 03:47:44;;;;;;;17.67;3.88;;;16.10;99.90;;;;;;5098001;27;20067;-40
2023/07/13 03:50:10;;;;;;;13.18;3.90;;;16.10;99.90;;;;;;5117211;27;20118;-40
2023/07/13 03:52:35;;;;;;;15.02;3.45;;;16.20;99.90;;;;;;5116185;27;20047;-40
2023/07/13 03:55:01;;;;;;;14.02;3.83;;;16.20;99.90;;;;;;5117248;27;20481;-40
2023/07/13 03:57:27;;;;;;;11.32;3.42;;;16.20;99.90;;;;;;5116208;27;20468;-41
2023/07/13 03:59:53;;;;;;;12.45;3.85;;;16.20;99.90;;;;;;5117292;27;20051;-41
2023/07/13 04:02:19;;;;;;;15.07;3.78;;;16.30;99.90;;;;;;5087522;27;20480;-40
2023/07/13 04:04:44;;;;;;;11.27;3.67;;;16.50;99.90;;;;;;5116963;27;20047;-40
2023/07/13 04:07:10;;;;;;;14.43;3.63;;;16.70;99.90;;;;;;5131118;27;20079;-39
2023/07/13 04:09:36;;;;;;;11.40;4.05;;;16.80;99.90;;;;;;5116817;27;20413;-42
2023/07/13 04:12:02;;;;;;;10.10;3.25;;;16.90;99.90;;;;;;5116069;27;20466;-40
2023/07/13 04:14:28;;;;;;;9.68;3.30;;;17.00;99.90;;;;;;5116992;27;20050;-41
2023/07/13 04:16:54;;;;;;;8.05;2.95;;;17.20;99.90;;;;;;5097442;27;20153;-41
2023/07/13 04:19:21;;;;;;;6.80;2.92;;;17.60;99.90;;;;;;5098191;27;20043;-40
2023/07/13 04:21:47;;;;;;;13.05;3.70;;;18.00;99.90;;;;;;5115826;27;20070;-42
2023/07/13 04:24:12;;;;;;;10.32;3.50;;;18.40;99.90;;;;;;5116054;27;20050;-41
2023/07/13 04:26:39;;;;;;;11.75;3.42;;;18.80;99.90;;;;;;5115565;27;20076;-40
2023/07/13 04:29:06;;;;;;;14.20;3.15;;;19.30;99.90;;;;;;5116018;27;20112;-40
2023/07/13 04:31:32;;;;;;;7.28;2.92;;;19.70;99.90;;;;;;5115655;27;20057;-41
2023/07/13 04:33:58;;;;;;;10.95;3.80;;;20.20;99.90;;;;;;5115921;27;20481;-40
2023/07/13 04:36:26;;;;;;;7.25;2.65;;;20.30;99.90;;;;;;5108380;27;20166;-41
2023/07/13 04:38:53;;;;;;;10.85;2.70;;;20.50;99.90;;;;;;5113292;27;20366;-41
2023/07/13 04:41:20;;;;;;;7.82;3.03;;;20.90;99.90;;;;;;5116022;27;20047;-41
2023/07/13 04:43:46;;;;;;;14.15;3.47;;;21.30;99.90;;;;;;5105614;27;20058;-43
2023/07/13 04:46:14;;;;;;;9.90;3.38;;;21.70;99.90;;;;;;5130117;27;20039;-41
2023/07/13 04:48:40;;;;;;;7.85;2.60;;;21.90;99.90;;;;;;5137274;27;20035;-42
2023/07/13 04:51:06;;;;;;;8.50;2.90;;;22.20;99.90;;;;;;5132342;27;20050;-42
2023/07/13 04:53:34;;;;;;;9.93;2.75;;;22.50;99.90;;;;;;5096926;27;20088;-42
2023/07/13 04:56:00;;;;;;;10.18;2.85;;;22.60;99.90;;;;;;5097013;27;20043;-43
2023/07/13 04:58:27;;;;;;;11.95;3.72;;;23.10;99.90;;;;;;5098107;27;20345;-41
2023/07/13 05:00:53;;;;;;;6.60;2.60;;;23.40;99.90;;;;;;5092619;28;20459;-42
2023/07/13 05:03:19;;;;;;;8.05;2.38;;;23.60;99.90;;;;;;5089936;27;20070;-41
2023/07/13 05:05:58;;;;;;;6.75;2.70;;;24.00;99.90;;;;;;5115976;27;20537;-42
2023/07/13 05:08:24;;;;;;;9.50;3.35;;;24.10;99.90;;;;;;5115760;27;20047;-43
2023/07/13 05:10:51;;;;;;;8.18;2.60;;;24.40;99.90;;;;;;5097233;27;20046;-43
2023/07/13 05:13:17;;;;;;;9.85;3.03;;;24.80;99.90;;;;;;5129955;27;20459;-42
2023/07/13 05:15:42;;;;;;;9.65;3.22;;;24.80;99.90;;;;;;5136252;27;20087;-42
2023/07/13 05:18:08;;;;;;;8.27;2.70;;;25.00;99.90;;;;;;5135797;27;20054;-44
2023/07/13 05:20:33;;;;;;;13.48;3.97;;;25.30;99.90;;;;;;5117733;27;20133;-44
2023/07/13 05:22:59;;;;;;;8.82;3.00;;;25.10;99.90;;;;;;5116965;27;20066;-42
2023/07/13 05:25:25;;;;;;;12.48;3.15;;;24.60;99.90;;;;;;5135785;27;20089;-41
2023/07/13 05:27:50;;;;;;;10.13;3.15;;;23.90;99.90;;;;;;5135726;27;20038;-42
2023/07/13 05:30:16;;;;;;;8.50;3.10;;;22.90;99.90;;;;;;5136596;27;20965;-41
2023/07/13 05:32:42;;;;;;;7.50;2.60;;;22.20;99.90;;;;;;5135188;27;20104;-44
2023/07/13 05:35:08;;;;;;;12.93;3.25;;;22.40;99.90;;;;;;5115974;27;20477;-41
2023/07/13 05:37:34;;;;;;;8.73;2.97;;;23.20;99.90;;;;;;5111871;27;20043;-41
2023/07/13 05:39:59;;;;;;;13.85;3.75;;;24.20;99.90;;;;;;5113364;27;20656;-42
2023/07/13 05:42:25;;;;;;;12.40;3.78;;;24.70;99.90;;;;;;5114601;27;20043;-42
2023/07/13 05:44:51;;;;;;;12.98;4.53;;;25.60;99.90;;;;;;5115038;27;20039;-42
2023/07/13 05:47:16;;;;;;;12.82;3.25;;;26.50;99.90;;;;;;5114920;27;20043;-42
2023/07/13 05:49:42;;;;;;;9.52;3.17;;;27.20;99.90;;;;;;5115619;27;20520;-41
2023/07/13 05:52:08;;;;;;;8.93;3.15;;;27.60;99.90;;;;;;5114769;27;20124;-41
2023/07/13 05:54:34;;;;;;;11.63;3.72;;;27.60;99.90;;;;;;5114354;27;20051;-43
2023/07/13 05:56:59;;;;;;;7.75;2.78;;;27.50;99.40;;;;;;5078815;28;20093;-40
2023/07/13 05:59:25;;;;;;;7.55;2.60;;;27.10;99.40;;;;;;5114724;27;20071;-41
2023/07/13 06:01:52;;;;;;;9.43;3.58;;;26.90;99.90;;;;;;5096514;28;20043;-42
2023/07/13 06:04:18;;;;;;;7.30;2.65;;;26.20;99.90;;;;;;5113789;27;20526;-42
2023/07/13 06:06:44;;;;;;;6.65;2.80;;;26.70;99.90;;;;;;5096101;28;20271;-42
2023/07/13 06:09:10;;;;;;;8.23;2.80;;;27.30;99.90;;;;;;5114435;27;20729;-41
2023/07/13 06:11:35;;;;;;;10.65;3.38;;;27.30;98.80;;;;;;5113831;27;20122;-43
2023/07/13 06:14:01;;;;;;;7.13;2.88;;;26.90;99.30;;;;;;5114222;27;20135;-42
2023/07/13 06:16:27;;;;;;;10.15;3.38;;;27.40;99.30;;;;;;5113783;27;20749;-44
2023/07/13 06:18:52;;;;;;;8.50;2.90;;;27.80;99.00;;;;;;5114464;27;20043;-42
2023/07/13 06:21:21;;;;;;;8.07;2.63;;;28.20;97.90;;;;;;5107562;27;20062;-41
2023/07/13 06:23:48;;;;;;;7.88;2.22;;;28.10;98.40;;;;;;5113049;27;20039;-41
2023/07/13 06:26:14;;;;;;;9.75;3.10;;;28.60;98.00;;;;;;5113133;27;20245;-42
2023/07/13 06:28:40;;;;;;;9.35;2.80;;;29.00;96.70;;;;;;5113896;27;20043;-41
2023/07/13 06:31:07;;;;;;;11.23;3.13;;;29.10;96.50;;;;;;5098126;27;20050;-45
2023/07/13 06:33:33;;;;;;;8.55;2.72;;;28.20;96.90;;;;;;5115967;27;20051;-42
2023/07/13 06:35:59;;;;;;;8.48;2.70;;;27.90;96.80;;;;;;5107846;27;20112;-44
2023/07/13 06:38:25;;;;;;;7.28;2.70;;;27.70;97.00;;;;;;5108533;27;20440;-41
2023/07/13 06:40:51;;;;;;;7.47;2.63;;;27.50;98.10;;;;;;5108746;27;20067;-43
2023/07/13 06:43:18;;;;;;;7.38;2.85;;;27.70;97.70;;;;;;5108759;27;20051;-42
2023/07/13 06:45:49;;;;;;;7.85;3.13;;;28.20;97.10;;;;;;5106072;27;20051;-43
2023/07/13 06:48:19;;;;;;;9.13;3.10;;;28.10;96.50;;;;;;5109295;27;20074;-42
2023/07/13 06:50:49;;;;;;;7.07;2.90;;;27.40;97.20;;;;;;5088562;27;20112;-43
2023/07/13 06:53:15;;;;;;;6.28;2.75;;;27.10;97.70;;;;;;5108988;27;20083;-41
2023/07/13 06:55:44;;;;;;;6.63;2.28;;;26.30;98.00;;;;;;5107973;27;20122;-44
2023/07/13 06:58:10;;;;;;;10.65;3.17;;;25.80;98.60;;;;;;5087992;27;20495;-41
2023/07/13 07:00:36;;;;;;;7.32;2.17;;;25.10;99.10;;;;;;5103245;27;20058;-40
2023/07/13 07:03:02;;;;;;;7.18;2.08;;;24.80;99.10;;;;;;5106391;27;20099;-42
2023/07/13 07:05:27;;;;;;;8.60;2.47;;;24.40;99.20;;;;;;5110852;27;20489;-42
2023/07/13 07:07:54;;;;;;;8.40;2.40;;;24.00;99.50;;;;;;5105237;27;20236;-43
2023/07/13 07:10:21;;;;;;;7.55;2.58;;;23.60;99.90;;;;;;5117536;27;20070;-41
2023/07/13 07:12:46;;;;;;;7.07;2.28;;;23.40;99.90;;;;;;5114903;27;20054;-41
2023/07/13 07:15:13;;;;;;;6.57;2.33;;;23.30;99.90;;;;;;5113027;27;20389;-41
2023/07/13 07:17:38;;;;;;;5.53;1.90;;;23.00;99.90;;;;;;5116765;27;20445;-41
2023/07/13 07:20:05;;;;;;;6.47;1.90;;;23.10;99.90;;;;;;5134069;27;20050;-41
2023/07/13 07:22:31;;;;;;;8.48;2.45;;;23.00;99.90;;;;;;5137677;27;20038;-41
2023/07/13 07:24:57;;;;;;;10.25;2.63;;;22.90;99.90;;;;;;5137748;27;20058;-41
2023/07/13 07:27:23;;;;;;;7.72;2.88;;;23.00;99.90;;;;;;5137140;27;20132;-41
2023/07/13 07:29:50;;;;;;;7.05;2.58;;;22.90;99.90;;;;;;5138437;27;20402;-41
2023/07/13 07:32:15;;;;;;;5.68;1.95;;;22.70;99.90;;;;;;5122523;27;20072;-40
2023/07/13 07:34:41;;;;;;;9.77;2.20;;;22.70;99.90;;;;;;5108139;27;20419;-41
2023/07/13 07:37:10;;;;;;;6.45;2.33;;;22.70;99.90;;;;;;5114445;27;20058;-42
2023/07/13 07:39:36;;;;;;;8.00;2.25;;;22.60;99.90;;;;;;5097182;27;20071;-41
2023/07/13 07:42:01;;;;;;;6.20;2.50;;;22.50;99.90;;;;;;5115021;27;20445;-40
2023/07/13 07:44:28;;;;;;;10.00;2.75;;;22.40;99.90;;;;;;5104180;27;20390;-40
2023/07/13 07:46:54;;;;;;;9.43;2.17;;;22.30;99.90;;;;;;5098470;27;20491;-41
2023/07/13 07:49:20;;;;;;;6.13;2.55;;;22.30;99.90;;;;;;5117649;27;20058;-40
2023/07/13 07:51:45;;;;;;;7.32;2.47;;;22.20;99.90;;;;;;5116809;27;20047;-41
2023/07/13 07:54:11;;;;;;;9.30;2.75;;;22.40;99.90;;;;;;5117067;27;20036;-41
2023/07/13 07:56:37;;;;;;;10.07;2.80;;;22.50;99.90;;;;;;5116675;27;20055;-41
2023/07/13 07:59:02;;;;;;;5.95;2.40;;;22.80;99.90;;;;;;5098546;27;20054;-43
2023/07/13 08:01:28;;;;;;;8.35;2.85;;;22.90;99.90;;;;;;5116794;27;20046;-40
2023/07/13 08:03:54;;;;;;;5.93;2.40;;;22.80;99.90;;;;;;5117546;27;20507;-41
2023/07/13 08:06:20;;;;;;;6.80;2.50;;;23.00;99.90;;;;;;5116838;27;20429;-42
2023/07/13 08:08:45;;;;;;;8.13;2.67;;;23.00;99.90;;;;;;5117158;27;20450;-42
2023/07/13 08:11:11;;;;;;;5.90;2.60;;;23.30;99.90;;;;;;5116366;27;20094;-41
2023/07/13 08:13:37;;;;;;;10.55;2.70;;;23.40;99.90;;;;;;5117067;27;20508;-43
2023/07/13 08:16:05;;;;;;;4.95;2.67;;;23.40;99.90;;;;;;5116623;27;20116;-41
2023/07/13 08:18:31;;;;;;;7.70;2.53;;;23.20;99.90;;;;;;5117450;27;20194;-40
2023/07/13 08:20:58;;;;;;;6.40;2.85;;;23.00;99.90;;;;;;5098699;27;20055;-41
2023/07/13 08:23:25;;;;;;;5.82;2.58;;;22.90;99.90;;;;;;5117479;27;20210;-41
2023/07/13 08:25:55;;;;;;;5.15;2.20;;;23.00;99.90;;;;;;5116470;27;20051;-42
2023/07/13 08:28:23;;;;;;;3.95;2.33;;;23.10;99.90;;;;;;5098321;27;20047;-40
2023/07/13 08:30:49;;;;;;;4.90;2.10;;;23.20;99.90;;;;;;5116836;27;20176;-41
2023/07/13 08:33:16;;;;;;;4.63;2.25;;;23.40;99.90;;;;;;5116887;27;20047;-40
2023/07/13 08:35:41;;;;;;;6.35;2.55;;;23.50;99.90;;;;;;5107160;27;20039;-41
2023/07/13 08:38:07;;;;;;;6.93;2.45;;;23.70;99.90;;;;;;5116822;27;20891;-42
2023/07/13 08:40:34;;;;;;;4.25;2.67;;;24.10;99.90;;;;;;5136446;27;20221;-41
2023/07/13 08:43:00;;;;;;;5.95;2.30;;;24.40;99.90;;;;;;5136475;27;20481;-42
2023/07/13 08:45:48;;;;;;;4.97;2.35;;;24.80;99.90;;;;;;5137569;27;20109;-41
2023/07/13 08:48:40;;;;;;;7.05;2.40;;;24.80;99.20;;;;;;5136976;27;20111;-41
2023/07/13 08:51:20;;;;;;;5.60;2.40;;;25.00;99.00;;;;;;5124811;27;20062;-40
2023/07/13 08:53:54;;;;;;;5.68;2.63;;;25.00;97.80;;;;;;5136914;27;20054;-40
2023/07/13 08:56:26;;;;;;;3.88;1.98;;;24.90;97.60;;;;;;5135676;27;20146;-40
2023/07/13 08:58:56;;;;;;;4.85;2.00;;;24.90;97.80;;;;;;5102229;27;20417;-41
2023/07/13 09:01:40;;;;;;;4.13;2.00;;;24.90;97.60;;;;;;5096626;27;20503;-40
2023/07/13 09:04:24;;;;;;;6.10;1.83;;;25.00;97.90;;;;;;5115107;27;20085;-41
2023/07/13 09:07:12;;;;;;;4.50;1.80;;;24.60;97.70;;;;;;5114384;27;20413;-44
2023/07/13 09:09:38;;;;;;;6.35;2.95;;;24.30;97.50;;;;;;5115149;27;20122;-40
2023/07/13 09:12:30;;;;;;;8.07;2.78;;;23.80;98.40;;;;;;5114507;27;20099;-40
2023/07/13 09:14:59;;;;;;;5.68;2.78;;;23.90;99.40;;;;;;5096285;27;20491;-41
2023/07/13 09:17:55;;;;;;;10.48;2.60;;;23.80;99.10;;;;;;5115137;27;20108;-42
2023/07/13 09:20:39;;;;;;;8.50;2.70;;;23.50;99.40;;;;;;5093142;27;20090;-44
2023/07/13 09:23:11;;;;;;;6.28;2.03;;;22.90;99.80;;;;;;5096756;27;20055;-41
2023/07/13 09:25:39;;;;;;;5.95;2.45;;;22.60;99.90;;;;;;5114630;27;20051;-42
2023/07/13 09:28:19;;;;;;;4.63;2.30;;;22.40;99.90;;;;;;5114699;27;21413;-42
2023/07/13 09:30:57;;;;;;;8.38;3.25;;;22.10;99.90;;;;;;5114114;27;20096;-41
2023/07/13 09:33:23;;;;;;;5.60;3.17;;;22.20;99.90;;;;;;5090764;28;20507;-41
2023/07/13 09:35:49;;;;;;;7.35;2.35;;;22.50;99.90;;;;;;5076357;27;20242;-40
2023/07/13 09:38:22;;;;;;;5.35;2.20;;;22.90;99.90;;;;;;5081935;28;20055;-41
2023/07/13 09:41:19;;;;;;;7.55;2.30;;;23.30;99.90;;;;;;5095629;27;20055;-40
2023/07/13 09:44:12;;;;;;;4.63;1.83;;;23.40;99.80;;;;;;5094382;27;20071;-40
2023/07/13 09:46:43;;;;;;;5.38;1.63;;;23.10;98.20;;;;;;5101262;27;20050;-42
2023/07/13 09:49:10;;;;;;;6.13;1.73;;;23.00;99.00;;;;;;5115065;27;20418;-41
2023/07/13 09:51:38;;;;;;;7.80;2.08;;;22.90;99.00;;;;;;5104351;27;20053;-40
2023/07/13 09:54:03;;;;;;;5.25;1.95;;;23.10;99.90;;;;;;5135342;27;20058;-40
2023/07/13 09:56:30;;;;;;;5.05;1.88;;;23.10;98.90;;;;;;5133525;27;20054;-41
2023/07/13 09:58:57;;;;;;;6.70;1.92;;;22.80;99.40;;;;;;5102143;27;20043;-41
2023/07/13 10:01:38;;;;;;;6.63;1.67;;;22.90;99.90;;;;;;5081297;28;20395;-41
2023/07/13 10:04:12;;;;;;;7.68;2.28;;;23.10;99.90;;;;;;5116456;27;20050;-40
2023/07/13 10:06:40;;;;;;;6.50;1.88;;;23.30;99.10;;;;;;5117511;27;20185;-40
2023/07/13 10:09:08;;;;;;;4.80;2.30;;;23.60;99.90;;;;;;5099731;27;20054;-41
2023/07/13 10:11:35;;;;;;;7.18;3.17;;;23.70;99.70;;;;;;5118691;27;20089;-40
2023/07/13 10:14:10;;;;;;;6.63;3.15;;;23.90;98.70;;;;;;5100174;27;20482;-42
2023/07/13 10:16:36;;;;;;;5.13;2.22;;;24.00;98.30;;;;;;5117990;27;20039;-40
2023/07/13 10:19:34;;;;;;;5.80;2.17;;;24.10;98.20;;;;;;5119322;27;20126;-40
2023/07/13 10:22:24;;;;;;;9.02;2.13;;;24.00;97.60;;;;;;5034136;28;20063;-41
2023/07/13 10:24:50;;;;;;;5.95;1.77;;;24.10;99.00;;;;;;5018302;28;20049;-41
2023/07/13 10:27:19;;;;;;;4.43;1.92;;;24.30;97.30;;;;;;5033539;28;20057;-40
2023/07/13 10:30:11;;;;;;;7.40;2.60;;;24.60;98.10;;;;;;5017159;28;20060;-41
2023/07/13 10:32:37;;;;;;;3.13;2.05;;;24.70;96.20;;;;;;5034052;28;20975;-42
2023/07/13 10:35:03;;;;;;;5.47;2.55;;;24.60;95.80;;;;;;5029790;28;20136;-40
2023/07/13 10:37:54;;;;;;;3.67;1.77;;;24.40;94.40;;;;;;5029806;28;20038;-41
2023/07/13 10:40:27;;;;;;;4.35;2.22;;;24.50;95.50;;;;;;4952575;28;20473;-41
2023/07/13 10:42:57;;;;;;;5.50;2.03;;;24.70;95.90;;;;;;4946771;28;20304;-41
2023/07/13 10:45:24;;;;;;;6.32;2.20;;;24.60;96.40;;;;;;4950350;28;20684;-41
2023/07/13 10:47:55;;;;;;;3.63;2.00;;;24.50;96.20;;;;;;4952661;28;20093;-41
2023/07/13 10:50:26;;;;;;;5.22;2.03;;;24.60;96.20;;;;;;4951558;28;20047;-41
2023/07/13 10:53:03;;;;;;;6.32;2.20;;;24.50;96.50;;;;;;4953878;28;20066;-40
2023/07/13 10:55:54;;;;;;;8.43;2.50;;;24.40;95.80;;;;;;4937645;28;20046;-41
2023/07/13 10:58:31;;;;;;;5.30;2.20;;;24.70;96.90;;;;;;4962743;28;20140;-40
2023/07/13 11:01:06;;;;;;;5.35;2.22;;;24.60;96.70;;;;;;5026777;28;20330;-41
2023/07/13 11:03:36;;;;;;;8.75;2.03;;;24.80;98.00;;;;;;5015927;28;20160;-42
2023/07/13 11:06:10;;;;;;;6.35;2.13;;;24.80;94.70;;;;;;5023866;28;20041;-40
2023/07/13 11:08:51;;;;;;;11.75;2.20;;;24.70;94.80;;;;;;5024451;28;20148;-40
2023/07/13 11:11:34;;;;;;;5.90;2.20;;;24.70;95.10;;;;;;5022112;28;20123;-41
2023/07/13 11:14:05;;;;;;;4.35;1.77;;;24.70;95.70;;;;;;5011257;28;20100;-40
2023/07/13 11:16:35;;;;;;;4.72;1.90;;;24.90;95.70;;;;;;5035645;27;20061;-40
2023/07/13 11:19:03;;;;;;;5.20;2.22;;;25.10;96.20;;;;;;5116462;27;20055;-39
2023/07/13 11:21:30;;;;;;;6.20;2.67;;;25.10;97.60;;;;;;5116071;27;20047;-41
2023/07/13 11:24:12;;;;;;;5.57;2.30;;;25.20;95.30;;;;;;5115835;27;20066;-40
2023/07/13 11:26:45;;;;;;;4.93;2.28;;;25.10;95.40;;;;;;5114630;27;20077;-40
2023/07/13 11:29:17;;;;;;;4.20;2.22;;;25.20;96.10;;;;;;5096256;27;20104;-41
2023/07/13 11:31:50;;;;;;;6.30;2.25;;;25.30;95.10;;;;;;5097890;27;20139;-40
2023/07/13 11:34:21;;;;;;;7.55;2.25;;;25.20;94.30;;;;;;5079256;27;20088;-40
2023/07/13 11:36:47;;;;;;;4.78;2.05;;;25.00;94.60;;;;;;5080143;28;20158;-40
2023/07/13 11:39:35;;;;;;;6.07;2.38;;;24.90;94.00;;;;;;5104328;27;20062;-41
2023/07/13 11:42:08;;;;;;;9.00;2.40;;;24.90;94.60;;;;;;5103981;27;20040;-41
2023/07/13 11:44:35;;;;;;;5.75;2.13;;;24.70;94.60;;;;;;5105314;27;20042;-40
2023/07/13 11:47:10;;;;;;;4.10;1.92;;;24.70;94.30;;;;;;5125973;27;20085;-40
2023/07/13 11:49:44;;;;;;;8.10;2.45;;;24.40;93.80;;;;;;5116834;27;20118;-40
2023/07/13 11:52:23;;;;;;;6.63;1.75;;;24.10;94.00;;;;;;5116438;27;20047;-41
2023/07/13 11:54:55;;;;;;;7.28;2.13;;;23.90;95.60;;;;;;5117200;27;20140;-40
2023/07/13 11:57:22;;;;;;;7.50;2.10;;;23.80;94.80;;;;;;5117073;27;20345;-40
2023/07/13 11:59:50;;;;;;;6.32;2.08;;;23.80;95.70;;;;;;5098408;27;20285;-41
2023/07/13 12:02:45;;;;;;;6.00;2.00;;;24.00;96.00;;;;;;5116192;27;20050;-40
2023/07/13 12:05:14;;;;;;;5.28;1.98;;;24.20;95.60;;;;;;5111869;27;20055;-41
2023/07/13 12:07:40;;;;;;;5.38;2.03;;;24.40;96.10;;;;;;5115936;27;20051;-41
2023/07/13 12:10:09;;;;;;;5.25;1.80;;;24.70;96.00;;;;;;5115748;27;20050;-41
2023/07/13 12:12:37;;;;;;;5.22;2.20;;;24.80;95.80;;;;;;5116854;27;20386;-42
2023/07/13 12:15:07;;;;;;;4.60;1.73;;;25.00;95.90;;;;;;5116213;27;20035;-40
2023/07/13 12:17:34;;;;;;;5.35;1.70;;;25.20;96.10;;;;;;5115474;27;20065;-40
2023/07/13 12:20:06;;;;;;;6.78;2.05;;;25.10;95.70;;;;;;5115521;27;20039;-40
2023/07/13 12:22:34;;;;;;;3.50;1.88;;;25.10;94.60;;;;;;5116340;27;20130;-41
2023/07/13 12:25:00;;;;;;;4.50;1.88;;;25.30;95.90;;;;;;5115499;27;20085;-41
2023/07/13 12:27:28;;;;;;;4.28;2.28;;;25.30;95.30;;;;;;5114835;27;20519;-40
2023/07/13 12:30:05;;;;;;;9.15;2.28;;;25.50;96.10;;;;;;5116238;27;20051;-41
2023/07/13 12:32:31;;;;;;;4.35;1.95;;;25.50;95.00;;;;;;5098340;27;20329;-42
2023/07/13 12:35:22;;;;;;;6.47;2.10;;;25.10;94.40;;;;;;5107506;27;20032;-40
2023/07/13 12:37:47;;;;;;;8.40;2.55;;;24.50;94.30;;;;;;5107878;27;20051;-40
2023/07/13 12:40:19;;;;;;;6.30;2.22;;;24.30;94.50;;;;;;5135409;27;20126;-40
2023/07/13 12:42:48;;;;;;;6.95;2.22;;;24.10;95.40;;;;;;5100691;27;20612;-42
2023/07/13 12:45:23;;;;;;;6.13;1.90;;;24.10;95.50;;;;;;5113075;27;20348;-41
2023/07/13 12:48:04;;;;;;;5.93;1.67;;;24.30;95.60;;;;;;5180567;27;20639;-42
2023/07/13 12:50:42;;;;;;;5.68;2.10;;;24.50;94.40;;;;;;5153595;27;20045;-41